sensor_id;sensor_type;location;lat;lon;timestamp;temperature;humidity
18361;SHT31;9308;48.550;9.108;2023-07-30T00:01:40;21.19;74.99
18361;SHT31;9308;48.550;9.108;2023-07-30T00:04:06;21.22;75.45
18361;SHT31;9308;48.550;9.108;2023-07-30T00:06:32;21.15;75.85
18361;SHT31;9308;48.550;9.108;2023-07-30T00:08:57;21.17;74.92
18361;SHT31;9308;48.550;9.108;2023-07-30T00:11:23;21.09;75.84
18361;SHT31;9308;48.550;9.108;2023-07-30T00:13:48;21.12;75.76
18361;SHT31;9308;48.550;9.108;2023-07-30T00:16:14;21.09;76.03
18361;SHT31;9308;48.550;9.108;2023-07-30T00:18:39;21.19;76.08
18361;SHT31;9308;48.550;9.108;2023-07-30T00:21:04;21.22;75.88
18361;SHT31;9308;48.550;9.108;2023-07-30T00:23:30;21.33;76.02
18361;SHT31;9308;48.550;9.108;2023-07-30T00:25:55;21.27;74.90
18361;SHT31;9308;48.550;9.108;2023-07-30T00:28:21;21.12;76.84
18361;SHT31;9308;48.550;9.108;2023-07-30T00:30:46;21.33;76.05
18361;SHT31;9308;48.550;9.108;2023-07-30T00:33:12;21.33;76.25
18361;SHT31;9308;48.550;9.108;2023-07-30T00:35:37;21.44;75.36
18361;SHT31;9308;48.550;9.108;2023-07-30T00:38:02;21.50;75.54
18361;SHT31;9308;48.550;9.108;2023-07-30T00:40:28;21.49;75.42
18361;SHT31;9308;48.550;9.108;2023-07-30T00:42:53;21.17;76.09
18361;SHT31;9308;48.550;9.108;2023-07-30T00:45:19;21.15;76.03
18361;SHT31;9308;48.550;9.108;2023-07-30T00:47:44;21.22;75.86
18361;SHT31;9308;48.550;9.108;2023-07-30T00:50:11;21.36;75.59
18361;SHT31;9308;48.550;9.108;2023-07-30T00:52:38;21.19;75.49
18361;SHT31;9308;48.550;9.108;2023-07-30T00:55:04;21.12;75.87
18361;SHT31;9308;48.550;9.108;2023-07-30T00:57:30;20.94;76.13
18361;SHT31;9308;48.550;9.108;2023-07-30T00:59:57;20.95;76.25
18361;SHT31;9308;48.550;9.108;2023-07-30T01:02:22;21.17;75.38
18361;SHT31;9308;48.550;9.108;2023-07-30T01:04:48;21.06;75.93
18361;SHT31;9308;48.550;9.108;2023-07-30T01:07:14;21.07;75.38
18361;SHT31;9308;48.550;9.108;2023-07-30T01:09:40;20.85;76.18
18361;SHT31;9308;48.550;9.108;2023-07-30T01:12:05;21.19;75.49
18361;SHT31;9308;48.550;9.108;2023-07-30T01:14:31;21.09;75.60
18361;SHT31;9308;48.550;9.108;2023-07-30T01:16:57;21.13;75.61
18361;SHT31;9308;48.550;9.108;2023-07-30T01:19:23;21.20;75.57
18361;SHT31;9308;48.550;9.108;2023-07-30T01:21:49;21.13;76.24
18361;SHT31;9308;48.550;9.108;2023-07-30T01:24:14;21.24;75.69
18361;SHT31;9308;48.550;9.108;2023-07-30T01:26:43;21.19;75.71
18361;SHT31;9308;48.550;9.108;2023-07-30T01:29:13;21.10;75.55
18361;SHT31;9308;48.550;9.108;2023-07-30T01:31:40;21.27;75.65
18361;SHT31;9308;48.550;9.108;2023-07-30T01:34:07;21.02;76.64
18361;SHT31;9308;48.550;9.108;2023-07-30T01:36:35;20.94;76.73
18361;SHT31;9308;48.550;9.108;2023-07-30T01:39:01;21.24;75.24
18361;SHT31;9308;48.550;9.108;2023-07-30T01:41:27;20.92;75.84
18361;SHT31;9308;48.550;9.108;2023-07-30T01:43:53;20.88;75.78
18361;SHT31;9308;48.550;9.108;2023-07-30T01:46:19;20.75;76.16
18361;SHT31;9308;48.550;9.108;2023-07-30T01:48:44;20.67;76.32
18361;SHT31;9308;48.550;9.108;2023-07-30T01:51:10;20.72;76.01
18361;SHT31;9308;48.550;9.108;2023-07-30T01:53:35;20.61;76.20
18361;SHT31;9308;48.550;9.108;2023-07-30T01:56:00;20.86;75.16
18361;SHT31;9308;48.550;9.108;2023-07-30T01:58:26;20.67;75.83
18361;SHT31;9308;48.550;9.108;2023-07-30T02:00:51;20.75;75.58
18361;SHT31;9308;48.550;9.108;2023-07-30T02:03:17;20.74;75.51
18361;SHT31;9308;48.550;9.108;2023-07-30T02:05:42;20.68;75.70
18361;SHT31;9308;48.550;9.108;2023-07-30T02:08:07;20.57;75.65
18361;SHT31;9308;48.550;9.108;2023-07-30T02:10:33;20.59;75.59
18361;SHT31;9308;48.550;9.108;2023-07-30T02:12:59;20.51;75.69
18361;SHT31;9308;48.550;9.108;2023-07-30T02:15:24;20.40;76.39
18361;SHT31;9308;48.550;9.108;2023-07-30T02:17:49;20.47;75.65
18361;SHT31;9308;48.550;9.108;2023-07-30T02:20:15;20.45;75.64
18361;SHT31;9308;48.550;9.108;2023-07-30T02:22:40;20.51;75.84
18361;SHT31;9308;48.550;9.108;2023-07-30T02:25:06;20.68;75.17
18361;SHT31;9308;48.550;9.108;2023-07-30T02:27:32;20.59;75.23
18361;SHT31;9308;48.550;9.108;2023-07-30T02:29:57;20.45;75.19
18361;SHT31;9308;48.550;9.108;2023-07-30T02:32:22;20.44;75.25
18361;SHT31;9308;48.550;9.108;2023-07-30T02:34:48;20.47;75.23
18361;SHT31;9308;48.550;9.108;2023-07-30T02:37:13;20.29;75.97
18361;SHT31;9308;48.550;9.108;2023-07-30T02:39:39;20.17;76.60
18361;SHT31;9308;48.550;9.108;2023-07-30T02:42:05;20.20;76.57
18361;SHT31;9308;48.550;9.108;2023-07-30T02:44:30;20.45;75.52
18361;SHT31;9308;48.550;9.108;2023-07-30T02:46:55;20.23;76.17
18361;SHT31;9308;48.550;9.108;2023-07-30T02:49:21;20.24;76.20
18361;SHT31;9308;48.550;9.108;2023-07-30T02:51:46;20.29;75.97
18361;SHT31;9308;48.550;9.108;2023-07-30T02:54:14;20.13;76.16
18361;SHT31;9308;48.550;9.108;2023-07-30T02:56:39;20.29;75.95
18361;SHT31;9308;48.550;9.108;2023-07-30T02:59:05;20.16;75.91
18361;SHT31;9308;48.550;9.108;2023-07-30T03:01:30;20.23;76.13
18361;SHT31;9308;48.550;9.108;2023-07-30T03:03:55;20.09;76.32
18361;SHT31;9308;48.550;9.108;2023-07-30T03:06:21;20.30;75.57
18361;SHT31;9308;48.550;9.108;2023-07-30T03:08:46;20.40;75.36
18361;SHT31;9308;48.550;9.108;2023-07-30T03:11:12;20.30;75.76
18361;SHT31;9308;48.550;9.108;2023-07-30T03:13:38;20.19;75.80
18361;SHT31;9308;48.550;9.108;2023-07-30T03:16:04;20.20;75.83
18361;SHT31;9308;48.550;9.108;2023-07-30T03:18:29;20.26;76.06
18361;SHT31;9308;48.550;9.108;2023-07-30T03:20:59;20.13;76.49
18361;SHT31;9308;48.550;9.108;2023-07-30T03:23:25;20.37;75.84
18361;SHT31;9308;48.550;9.108;2023-07-30T03:25:51;20.67;75.28
18361;SHT31;9308;48.550;9.108;2023-07-30T03:28:16;20.50;75.54
18361;SHT31;9308;48.550;9.108;2023-07-30T03:30:42;20.59;75.43
18361;SHT31;9308;48.550;9.108;2023-07-30T03:33:07;20.58;75.26
18361;SHT31;9308;48.550;9.108;2023-07-30T03:35:33;20.44;75.31
18361;SHT31;9308;48.550;9.108;2023-07-30T03:37:58;20.40;75.95
18361;SHT31;9308;48.550;9.108;2023-07-30T03:40:24;20.05;76.80
18361;SHT31;9308;48.550;9.108;2023-07-30T03:42:49;20.30;76.22
18361;SHT31;9308;48.550;9.108;2023-07-30T03:45:15;20.43;75.89
18361;SHT31;9308;48.550;9.108;2023-07-30T03:47:40;20.36;76.16
18361;SHT31;9308;48.550;9.108;2023-07-30T03:50:06;20.51;75.37
18361;SHT31;9308;48.550;9.108;2023-07-30T03:52:31;20.51;75.81
18361;SHT31;9308;48.550;9.108;2023-07-30T03:54:57;20.47;75.59
18361;SHT31;9308;48.550;9.108;2023-07-30T03:57:22;20.55;75.60
18361;SHT31;9308;48.550;9.108;2023-07-30T03:59:48;20.55;75.66
18361;SHT31;9308;48.550;9.108;2023-07-30T04:02:13;20.44;75.37
18361;SHT31;9308;48.550;9.108;2023-07-30T04:04:44;20.43;75.99
18361;SHT31;9308;48.550;9.108;2023-07-30T04:07:11;20.24;76.44
18361;SHT31;9308;48.550;9.108;2023-07-30T04:09:36;20.40;76.01
18361;SHT31;9308;48.550;9.108;2023-07-30T04:12:02;20.57;75.75
18361;SHT31;9308;48.550;9.108;2023-07-30T04:14:27;20.62;75.58
18361;SHT31;9308;48.550;9.108;2023-07-30T04:16:53;20.62;75.59
18361;SHT31;9308;48.550;9.108;2023-07-30T04:19:18;20.79;75.20
18361;SHT31;9308;48.550;9.108;2023-07-30T04:21:44;20.81;74.92
18361;SHT31;9308;48.550;9.108;2023-07-30T04:24:10;20.78;75.27
18361;SHT31;9308;48.550;9.108;2023-07-30T04:26:35;20.72;75.43
18361;SHT31;9308;48.550;9.108;2023-07-30T04:29:01;20.78;75.05
18361;SHT31;9308;48.550;9.108;2023-07-30T04:31:26;20.82;74.90
18361;SHT31;9308;48.550;9.108;2023-07-30T04:33:51;20.79;74.83
18361;SHT31;9308;48.550;9.108;2023-07-30T04:36:17;20.57;76.00
18361;SHT31;9308;48.550;9.108;2023-07-30T04:38:42;20.52;76.35
18361;SHT31;9308;48.550;9.108;2023-07-30T04:41:08;20.79;75.52
18361;SHT31;9308;48.550;9.108;2023-07-30T04:43:33;20.52;76.15
18361;SHT31;9308;48.550;9.108;2023-07-30T04:45:58;20.62;76.00
18361;SHT31;9308;48.550;9.108;2023-07-30T04:48:24;20.62;76.19
18361;SHT31;9308;48.550;9.108;2023-07-30T04:50:49;20.51;76.19
18361;SHT31;9308;48.550;9.108;2023-07-30T04:53:15;20.89;75.35
18361;SHT31;9308;48.550;9.108;2023-07-30T04:55:42;20.88;75.55
18361;SHT31;9308;48.550;9.108;2023-07-30T04:58:08;20.98;74.99
18361;SHT31;9308;48.550;9.108;2023-07-30T05:00:33;21.19;74.19
18361;SHT31;9308;48.550;9.108;2023-07-30T05:02:58;21.13;74.65
18361;SHT31;9308;48.550;9.108;2023-07-30T05:05:24;21.09;74.86
18361;SHT31;9308;48.550;9.108;2023-07-30T05:07:50;20.99;75.03
18361;SHT31;9308;48.550;9.108;2023-07-30T05:10:15;21.05;74.71
18361;SHT31;9308;48.550;9.108;2023-07-30T05:12:41;20.94;75.28
18361;SHT31;9308;48.550;9.108;2023-07-30T05:15:07;21.09;74.76
18361;SHT31;9308;48.550;9.108;2023-07-30T05:17:32;21.24;74.40
18361;SHT31;9308;48.550;9.108;2023-07-30T05:19:58;21.24;74.99
18361;SHT31;9308;48.550;9.108;2023-07-30T05:22:23;21.44;74.42
18361;SHT31;9308;48.550;9.108;2023-07-30T05:24:50;21.40;74.00
18361;SHT31;9308;48.550;9.108;2023-07-30T05:27:16;21.68;73.24
18361;SHT31;9308;48.550;9.108;2023-07-30T05:29:41;21.44;74.05
18361;SHT31;9308;48.550;9.108;2023-07-30T05:32:07;21.47;74.05
18361;SHT31;9308;48.550;9.108;2023-07-30T05:34:32;21.53;74.47
18361;SHT31;9308;48.550;9.108;2023-07-30T05:36:58;21.53;73.89
18361;SHT31;9308;48.550;9.108;2023-07-30T05:39:24;21.46;74.39
18361;SHT31;9308;48.550;9.108;2023-07-30T05:41:49;21.34;74.04
18361;SHT31;9308;48.550;9.108;2023-07-30T05:44:15;21.22;74.10
18361;SHT31;9308;48.550;9.108;2023-07-30T05:46:40;21.55;73.69
18361;SHT31;9308;48.550;9.108;2023-07-30T05:49:06;21.49;73.27
18361;SHT31;9308;48.550;9.108;2023-07-30T05:51:31;21.37;74.22
18361;SHT31;9308;48.550;9.108;2023-07-30T05:53:56;21.60;74.00
18361;SHT31;9308;48.550;9.108;2023-07-30T05:56:22;21.43;73.93
18361;SHT31;9308;48.550;9.108;2023-07-30T05:58:47;21.58;73.87
18361;SHT31;9308;48.550;9.108;2023-07-30T06:01:13;21.75;73.32
18361;SHT31;9308;48.550;9.108;2023-07-30T06:03:38;21.58;73.98
18361;SHT31;9308;48.550;9.108;2023-07-30T06:06:04;21.49;73.67
18361;SHT31;9308;48.550;9.108;2023-07-30T06:08:30;21.33;74.35
18361;SHT31;9308;48.550;9.108;2023-07-30T06:11:00;21.36;74.15
18361;SHT31;9308;48.550;9.108;2023-07-30T06:13:25;21.54;74.46
18361;SHT31;9308;48.550;9.108;2023-07-30T06:15:51;21.74;73.99
18361;SHT31;9308;48.550;9.108;2023-07-30T06:18:16;21.78;73.88
18361;SHT31;9308;48.550;9.108;2023-07-30T06:20:41;21.67;74.31
18361;SHT31;9308;48.550;9.108;2023-07-30T06:23:07;21.55;74.73
18361;SHT31;9308;48.550;9.108;2023-07-30T06:25:32;21.92;74.27
18361;SHT31;9308;48.550;9.108;2023-07-30T06:27:58;21.98;74.15
18361;SHT31;9308;48.550;9.108;2023-07-30T06:30:24;22.15;73.55
18361;SHT31;9308;48.550;9.108;2023-07-30T06:32:50;22.12;74.15
18361;SHT31;9308;48.550;9.108;2023-07-30T06:35:15;22.19;73.57
18361;SHT31;9308;48.550;9.108;2023-07-30T06:37:41;21.99;73.89
18361;SHT31;9308;48.550;9.108;2023-07-30T06:40:07;22.05;74.04
18361;SHT31;9308;48.550;9.108;2023-07-30T06:42:32;22.09;73.25
18361;SHT31;9308;48.550;9.108;2023-07-30T06:44:58;21.98;73.95
18361;SHT31;9308;48.550;9.108;2023-07-30T06:47:24;22.26;74.41
18361;SHT31;9308;48.550;9.108;2023-07-30T06:49:49;22.22;73.32
18361;SHT31;9308;48.550;9.108;2023-07-30T06:52:15;22.61;73.15
18361;SHT31;9308;48.550;9.108;2023-07-30T06:54:40;22.84;72.26
18361;SHT31;9308;48.550;9.108;2023-07-30T06:57:06;22.57;72.75
18361;SHT31;9308;48.550;9.108;2023-07-30T06:59:31;22.63;72.87
18361;SHT31;9308;48.550;9.108;2023-07-30T07:01:57;22.67;74.27
18361;SHT31;9308;48.550;9.108;2023-07-30T07:04:22;22.56;74.34
18361;SHT31;9308;48.550;9.108;2023-07-30T07:06:47;22.64;72.99
18361;SHT31;9308;48.550;9.108;2023-07-30T07:09:13;22.57;73.88
18361;SHT31;9308;48.550;9.108;2023-07-30T07:11:38;22.40;73.69
18361;SHT31;9308;48.550;9.108;2023-07-30T07:14:04;22.81;73.35
18361;SHT31;9308;48.550;9.108;2023-07-30T07:16:29;22.50;73.33
18361;SHT31;9308;48.550;9.108;2023-07-30T07:18:55;22.43;73.28
18361;SHT31;9308;48.550;9.108;2023-07-30T07:21:20;22.71;72.88
18361;SHT31;9308;48.550;9.108;2023-07-30T07:23:46;22.77;72.77
18361;SHT31;9308;48.550;9.108;2023-07-30T07:26:11;22.91;72.16
18361;SHT31;9308;48.550;9.108;2023-07-30T07:28:36;22.35;74.06
18361;SHT31;9308;48.550;9.108;2023-07-30T07:31:02;21.97;75.61
18361;SHT31;9308;48.550;9.108;2023-07-30T07:33:28;21.55;79.35
18361;SHT31;9308;48.550;9.108;2023-07-30T07:36:06;21.17;75.10
18361;SHT31;9308;48.550;9.108;2023-07-30T07:38:32;20.57;75.70
18361;SHT31;9308;48.550;9.108;2023-07-30T07:40:59;20.81;75.42
18361;SHT31;9308;48.550;9.108;2023-07-30T07:43:25;21.29;74.18
18361;SHT31;9308;48.550;9.108;2023-07-30T07:45:50;21.92;71.98
18361;SHT31;9308;48.550;9.108;2023-07-30T07:48:16;22.23;72.05
18361;SHT31;9308;48.550;9.108;2023-07-30T07:50:41;22.25;71.71
18361;SHT31;9308;48.550;9.108;2023-07-30T07:53:07;22.39;71.52
18361;SHT31;9308;48.550;9.108;2023-07-30T07:55:32;22.30;72.57
18361;SHT31;9308;48.550;9.108;2023-07-30T07:57:58;22.16;73.84
18361;SHT31;9308;48.550;9.108;2023-07-30T08:00:23;22.49;71.90
18361;SHT31;9308;48.550;9.108;2023-07-30T08:02:49;22.60;72.41
18361;SHT31;9308;48.550;9.108;2023-07-30T08:05:15;22.61;72.34
18361;SHT31;9308;48.550;9.108;2023-07-30T08:07:47;22.80;72.63
18361;SHT31;9308;48.550;9.108;2023-07-30T08:10:13;22.92;71.87
18361;SHT31;9308;48.550;9.108;2023-07-30T08:12:38;23.16;71.43
18361;SHT31;9308;48.550;9.108;2023-07-30T08:15:04;23.28;71.76
18361;SHT31;9308;48.550;9.108;2023-07-30T08:17:32;23.60;70.44
18361;SHT31;9308;48.550;9.108;2023-07-30T08:19:58;23.77;70.14
18361;SHT31;9308;48.550;9.108;2023-07-30T08:22:23;23.36;70.31
18361;SHT31;9308;48.550;9.108;2023-07-30T08:24:49;23.58;69.40
18361;SHT31;9308;48.550;9.108;2023-07-30T08:27:15;23.68;68.95
18361;SHT31;9308;48.550;9.108;2023-07-30T08:29:43;24.01;69.27
18361;SHT31;9308;48.550;9.108;2023-07-30T08:32:10;24.42;68.00
18361;SHT31;9308;48.550;9.108;2023-07-30T08:34:35;24.29;68.58
18361;SHT31;9308;48.550;9.108;2023-07-30T08:37:01;24.01;69.74
18361;SHT31;9308;48.550;9.108;2023-07-30T08:39:26;24.25;68.28
18361;SHT31;9308;48.550;9.108;2023-07-30T08:41:52;24.16;67.64
18361;SHT31;9308;48.550;9.108;2023-07-30T08:44:17;24.38;67.47
18361;SHT31;9308;48.550;9.108;2023-07-30T08:46:43;24.26;67.10
18361;SHT31;9308;48.550;9.108;2023-07-30T08:49:08;24.21;66.60
18361;SHT31;9308;48.550;9.108;2023-07-30T08:51:36;24.50;67.09
18361;SHT31;9308;48.550;9.108;2023-07-30T08:54:03;24.60;66.83
18361;SHT31;9308;48.550;9.108;2023-07-30T08:56:30;24.31;66.43
18361;SHT31;9308;48.550;9.108;2023-07-30T08:58:57;25.01;66.68
18361;SHT31;9308;48.550;9.108;2023-07-30T09:01:29;24.98;66.03
18361;SHT31;9308;48.550;9.108;2023-07-30T09:03:57;24.53;64.42
18361;SHT31;9308;48.550;9.108;2023-07-30T09:06:25;24.39;63.64
18361;SHT31;9308;48.550;9.108;2023-07-30T09:08:51;24.50;65.82
18361;SHT31;9308;48.550;9.108;2023-07-30T09:11:17;24.05;64.74
18361;SHT31;9308;48.550;9.108;2023-07-30T09:13:43;24.38;67.46
18361;SHT31;9308;48.550;9.108;2023-07-30T09:16:10;24.29;66.24
18361;SHT31;9308;48.550;9.108;2023-07-30T09:18:44;23.98;65.26
18361;SHT31;9308;48.550;9.108;2023-07-30T09:21:11;23.71;66.20
18361;SHT31;9308;48.550;9.108;2023-07-30T09:23:44;23.74;66.23
18361;SHT31;9308;48.550;9.108;2023-07-30T09:26:10;24.01;66.67
18361;SHT31;9308;48.550;9.108;2023-07-30T09:28:36;23.77;67.03
18361;SHT31;9308;48.550;9.108;2023-07-30T09:31:07;23.61;67.65
18361;SHT31;9308;48.550;9.108;2023-07-30T09:33:41;23.73;68.35
18361;SHT31;9308;48.550;9.108;2023-07-30T09:36:09;23.58;68.68
18361;SHT31;9308;48.550;9.108;2023-07-30T09:38:44;23.63;68.61
18361;SHT31;9308;48.550;9.108;2023-07-30T09:41:11;23.43;66.26
18361;SHT31;9308;48.550;9.108;2023-07-30T09:43:37;23.54;67.31
18361;SHT31;9308;48.550;9.108;2023-07-30T09:46:04;23.88;66.60
18361;SHT31;9308;48.550;9.108;2023-07-30T09:48:31;23.49;65.69
18361;SHT31;9308;48.550;9.108;2023-07-30T09:51:01;23.87;66.17
18361;SHT31;9308;48.550;9.108;2023-07-30T09:53:32;23.57;66.49
18361;SHT31;9308;48.550;9.108;2023-07-30T09:56:02;23.64;65.95
18361;SHT31;9308;48.550;9.108;2023-07-30T09:58:28;24.01;63.63
18361;SHT31;9308;48.550;9.108;2023-07-30T10:00:55;23.70;63.46
18361;SHT31;9308;48.550;9.108;2023-07-30T10:03:22;23.70;63.61
18361;SHT31;9308;48.550;9.108;2023-07-30T10:05:47;23.63;64.20
18361;SHT31;9308;48.550;9.108;2023-07-30T10:08:24;23.95;63.08
18361;SHT31;9308;48.550;9.108;2023-07-30T10:10:53;24.15;62.81
18361;SHT31;9308;48.550;9.108;2023-07-30T10:13:20;24.42;61.48
18361;SHT31;9308;48.550;9.108;2023-07-30T10:15:46;24.64;60.73
18361;SHT31;9308;48.550;9.108;2023-07-30T10:18:11;24.76;59.85
18361;SHT31;9308;48.550;9.108;2023-07-30T10:20:37;24.66;61.25
18361;SHT31;9308;48.550;9.108;2023-07-30T10:23:04;25.31;59.18
18361;SHT31;9308;48.550;9.108;2023-07-30T10:25:43;25.12;57.77
18361;SHT31;9308;48.550;9.108;2023-07-30T10:28:40;24.60;59.71
18361;SHT31;9308;48.550;9.108;2023-07-30T10:31:09;24.76;60.78
18361;SHT31;9308;48.550;9.108;2023-07-30T10:33:50;25.01;58.53
18361;SHT31;9308;48.550;9.108;2023-07-30T10:36:18;25.04;58.15
18361;SHT31;9308;48.550;9.108;2023-07-30T10:38:44;25.49;60.62
18361;SHT31;9308;48.550;9.108;2023-07-30T10:41:13;25.83;57.86
18361;SHT31;9308;48.550;9.108;2023-07-30T10:46:04;25.74;59.66
18361;SHT31;9308;48.550;9.108;2023-07-30T10:48:35;26.11;59.79
18361;SHT31;9308;48.550;9.108;2023-07-30T10:51:02;25.41;56.14
18361;SHT31;9308;48.550;9.108;2023-07-30T10:53:28;25.41;56.82
18361;SHT31;9308;48.550;9.108;2023-07-30T10:55:54;25.42;59.37
18361;SHT31;9308;48.550;9.108;2023-07-30T10:58:21;25.22;57.66
18361;SHT31;9308;48.550;9.108;2023-07-30T11:00:48;24.94;60.03
18361;SHT31;9308;48.550;9.108;2023-07-30T11:03:14;25.52;57.63
18361;SHT31;9308;48.550;9.108;2023-07-30T11:05:39;26.00;58.66
18361;SHT31;9308;48.550;9.108;2023-07-30T11:08:05;26.25;55.03
18361;SHT31;9308;48.550;9.108;2023-07-30T11:10:31;26.15;56.53
18361;SHT31;9308;48.550;9.108;2023-07-30T11:12:57;26.53;55.22
18361;SHT31;9308;48.550;9.108;2023-07-30T11:15:22;26.24;54.05
18361;SHT31;9308;48.550;9.108;2023-07-30T11:17:48;26.74;56.20
18361;SHT31;9308;48.550;9.108;2023-07-30T11:20:22;26.05;51.81
18361;SHT31;9308;48.550;9.108;2023-07-30T11:22:48;26.34;51.56
18361;SHT31;9308;48.550;9.108;2023-07-30T11:25:17;26.11;49.92
18361;SHT31;9308;48.550;9.108;2023-07-30T11:27:49;26.70;51.71
18361;SHT31;9308;48.550;9.108;2023-07-30T11:30:15;26.02;48.78
18361;SHT31;9308;48.550;9.108;2023-07-30T11:32:42;26.66;52.45
18361;SHT31;9308;48.550;9.108;2023-07-30T11:35:08;27.31;49.53
18361;SHT31;9308;48.550;9.108;2023-07-30T11:37:34;27.06;48.43
18361;SHT31;9308;48.550;9.108;2023-07-30T11:40:00;27.39;47.21
18361;SHT31;9308;48.550;9.108;2023-07-30T11:42:26;27.21;49.44
18361;SHT31;9308;48.550;9.108;2023-07-30T11:44:55;27.32;46.75
18361;SHT31;9308;48.550;9.108;2023-07-30T11:47:21;27.27;46.05
18361;SHT31;9308;48.550;9.108;2023-07-30T11:49:57;27.04;47.55
18361;SHT31;9308;48.550;9.108;2023-07-30T11:52:23;26.93;48.22
18361;SHT31;9308;48.550;9.108;2023-07-30T11:54:59;27.75;47.41
18361;SHT31;9308;48.550;9.108;2023-07-30T11:57:33;27.07;46.58
18361;SHT31;9308;48.550;9.108;2023-07-30T11:59:59;26.87;48.31
18361;SHT31;9308;48.550;9.108;2023-07-30T12:02:25;27.00;46.29
18361;SHT31;9308;48.550;9.108;2023-07-30T12:04:50;28.27;45.75
18361;SHT31;9308;48.550;9.108;2023-07-30T12:07:25;27.59;44.79
18361;SHT31;9308;48.550;9.108;2023-07-30T12:09:50;27.69;45.25
18361;SHT31;9308;48.550;9.108;2023-07-30T12:12:16;27.39;44.27
18361;SHT31;9308;48.550;9.108;2023-07-30T12:14:53;27.34;45.42
18361;SHT31;9308;48.550;9.108;2023-07-30T12:17:19;27.56;46.45
18361;SHT31;9308;48.550;9.108;2023-07-30T12:19:45;27.56;44.74
18361;SHT31;9308;48.550;9.108;2023-07-30T12:22:10;27.37;45.48
18361;SHT31;9308;48.550;9.108;2023-07-30T12:24:36;27.80;43.48
18361;SHT31;9308;48.550;9.108;2023-07-30T12:27:01;27.65;44.54
18361;SHT31;9308;48.550;9.108;2023-07-30T12:29:27;27.24;45.09
18361;SHT31;9308;48.550;9.108;2023-07-30T12:31:55;27.62;45.69
18361;SHT31;9308;48.550;9.108;2023-07-30T12:34:22;27.82;44.61
18361;SHT31;9308;48.550;9.108;2023-07-30T12:36:48;27.12;45.02
18361;SHT31;9308;48.550;9.108;2023-07-30T12:39:13;27.32;45.16
18361;SHT31;9308;48.550;9.108;2023-07-30T12:41:39;26.72;44.79
18361;SHT31;9308;48.550;9.108;2023-07-30T12:44:04;26.87;46.71
18361;SHT31;9308;48.550;9.108;2023-07-30T12:46:30;26.59;46.57
18361;SHT31;9308;48.550;9.108;2023-07-30T12:48:57;26.49;46.58
18361;SHT31;9308;48.550;9.108;2023-07-30T12:51:23;26.51;46.36
18361;SHT31;9308;48.550;9.108;2023-07-30T12:53:48;26.22;47.69
18361;SHT31;9308;48.550;9.108;2023-07-30T12:56:15;26.20;47.49
18361;SHT31;9308;48.550;9.108;2023-07-30T12:58:41;26.24;46.45
18361;SHT31;9308;48.550;9.108;2023-07-30T13:01:07;26.52;47.16
18361;SHT31;9308;48.550;9.108;2023-07-30T13:03:32;26.66;46.40
18361;SHT31;9308;48.550;9.108;2023-07-30T13:05:58;27.27;46.38
18361;SHT31;9308;48.550;9.108;2023-07-30T13:08:24;27.89;45.53
18361;SHT31;9308;48.550;9.108;2023-07-30T13:10:52;28.34;45.39
18361;SHT31;9308;48.550;9.108;2023-07-30T13:13:17;28.18;44.76
18361;SHT31;9308;48.550;9.108;2023-07-30T13:15:43;28.61;43.04
18361;SHT31;9308;48.550;9.108;2023-07-30T13:18:09;27.92;43.75
18361;SHT31;9308;48.550;9.108;2023-07-30T13:20:35;27.39;43.63
18361;SHT31;9308;48.550;9.108;2023-07-30T13:23:00;27.10;45.62
18361;SHT31;9308;48.550;9.108;2023-07-30T13:25:26;27.20;45.51
18361;SHT31;9308;48.550;9.108;2023-07-30T13:27:51;27.38;45.56
18361;SHT31;9308;48.550;9.108;2023-07-30T13:30:17;26.93;46.01
18361;SHT31;9308;48.550;9.108;2023-07-30T13:32:42;26.76;46.62
18361;SHT31;9308;48.550;9.108;2023-07-30T13:35:08;26.42;47.21
18361;SHT31;9308;48.550;9.108;2023-07-30T13:37:33;26.41;47.87
18361;SHT31;9308;48.550;9.108;2023-07-30T13:39:59;27.17;47.61
18361;SHT31;9308;48.550;9.108;2023-07-30T13:42:24;27.28;46.44
18361;SHT31;9308;48.550;9.108;2023-07-30T13:44:51;27.24;46.25
18361;SHT31;9308;48.550;9.108;2023-07-30T13:47:16;27.79;46.14
18361;SHT31;9308;48.550;9.108;2023-07-30T13:49:42;27.79;46.42
18361;SHT31;9308;48.550;9.108;2023-07-30T13:52:07;27.79;46.15
18361;SHT31;9308;48.550;9.108;2023-07-30T13:54:32;27.86;44.70
18361;SHT31;9308;48.550;9.108;2023-07-30T13:56:58;27.47;45.64
18361;SHT31;9308;48.550;9.108;2023-07-30T13:59:23;27.07;46.19
18361;SHT31;9308;48.550;9.108;2023-07-30T14:01:49;27.07;46.22
18361;SHT31;9308;48.550;9.108;2023-07-30T14:04:14;27.59;45.56
18361;SHT31;9308;48.550;9.108;2023-07-30T14:06:40;27.73;46.26
18361;SHT31;9308;48.550;9.108;2023-07-30T14:09:05;28.16;44.59
18361;SHT31;9308;48.550;9.108;2023-07-30T14:11:30;27.79;45.06
18361;SHT31;9308;48.550;9.108;2023-07-30T14:13:56;27.45;46.51
18361;SHT31;9308;48.550;9.108;2023-07-30T14:16:23;26.44;47.18
18361;SHT31;9308;48.550;9.108;2023-07-30T14:18:48;26.55;46.86
18361;SHT31;9308;48.550;9.108;2023-07-30T14:21:14;26.94;46.42
18361;SHT31;9308;48.550;9.108;2023-07-30T14:23:39;26.93;46.14
18361;SHT31;9308;48.550;9.108;2023-07-30T14:26:05;27.08;46.36
18361;SHT31;9308;48.550;9.108;2023-07-30T14:28:32;27.51;45.54
18361;SHT31;9308;48.550;9.108;2023-07-30T14:30:57;28.10;44.47
18361;SHT31;9308;48.550;9.108;2023-07-30T14:33:23;28.67;44.40
18361;SHT31;9308;48.550;9.108;2023-07-30T14:35:48;28.24;43.34
18361;SHT31;9308;48.550;9.108;2023-07-30T14:38:14;27.73;43.38
18361;SHT31;9308;48.550;9.108;2023-07-30T14:40:39;27.97;44.54
18361;SHT31;9308;48.550;9.108;2023-07-30T14:43:04;28.59;44.08
18361;SHT31;9308;48.550;9.108;2023-07-30T14:45:30;28.23;44.56
18361;SHT31;9308;48.550;9.108;2023-07-30T14:47:55;28.25;45.59
18361;SHT31;9308;48.550;9.108;2023-07-30T14:50:22;28.14;43.28
18361;SHT31;9308;48.550;9.108;2023-07-30T14:52:48;28.25;45.33
18361;SHT31;9308;48.550;9.108;2023-07-30T14:55:14;27.73;44.03
18361;SHT31;9308;48.550;9.108;2023-07-30T14:57:40;27.28;44.40
18361;SHT31;9308;48.550;9.108;2023-07-30T15:00:06;26.65;46.07
18361;SHT31;9308;48.550;9.108;2023-07-30T15:02:32;27.22;44.83
18361;SHT31;9308;48.550;9.108;2023-07-30T15:04:59;27.42;45.92
18361;SHT31;9308;48.550;9.108;2023-07-30T15:07:25;27.58;44.08
18361;SHT31;9308;48.550;9.108;2023-07-30T15:09:52;27.82;43.49
18361;SHT31;9308;48.550;9.108;2023-07-30T15:12:17;27.63;43.66
18361;SHT31;9308;48.550;9.108;2023-07-30T15:14:43;27.03;44.58
18361;SHT31;9308;48.550;9.108;2023-07-30T15:17:08;27.01;42.94
18361;SHT31;9308;48.550;9.108;2023-07-30T15:19:34;27.41;42.19
18361;SHT31;9308;48.550;9.108;2023-07-30T15:21:59;27.14;43.19
18361;SHT31;9308;48.550;9.108;2023-07-30T15:24:25;27.27;42.75
18361;SHT31;9308;48.550;9.108;2023-07-30T15:26:50;27.12;43.20
18361;SHT31;9308;48.550;9.108;2023-07-30T15:29:16;26.97;44.50
18361;SHT31;9308;48.550;9.108;2023-07-30T15:31:41;26.94;43.56
18361;SHT31;9308;48.550;9.108;2023-07-30T15:34:07;26.97;43.77
18361;SHT31;9308;48.550;9.108;2023-07-30T15:36:32;27.21;44.81
18361;SHT31;9308;48.550;9.108;2023-07-30T15:38:58;26.94;43.69
18361;SHT31;9308;48.550;9.108;2023-07-30T15:41:23;27.56;44.06